Etusivu
METAR-TAF:

METAR-TAF

Lentoasemat :

Burnet Municipal Airport (Kate Craddock Field)

Burnet, Texas, Yhdysvallat

Leveyspiiri: 30-44-26N, Pituuspiiri: 098-14-07W, korkeus merenpinnasta: 392 m

Tämänhetkinen sää

Tämä raportti tehtiin 1 tunti ja 15 minuuttia sitten, kello 19.53 UTC
Tuuli 4 kn idästä/kaakosta
Lämpötila 27°C
Kosteus 84%
Ilmanpaine 1010 hPa
Näkyvyys: 16.1 km
Hajanaisia pilviä 3500 ft:n korkeudessa
Hajonneita pilviä 5000 ft:n korkeudessa
Pilvistä 6000 ft:n korkeudessa
heikkoa sadetta

METAR: KBMQ 231953Z AUTO 12004KT 10SM -RA SCT035 BKN050 OVC060 27/24 A2983 RMK AO2 RAB46 SLP084 P0000 T02670239

Aika: 16:08 (21:08 UTC)


TAF: puuttuu

Säähavainnot ja -ennusteet yli 4000 lentoasemalta (METAR- ja TAF-raportit).

Käytössä olevat sääasemat on merkitty karttaan keltaisilla ja punaisilla pisteillä.

Aseta hiiri pisteen päälle nähdäksesi sääaseman nimen.

Klikkaa sitten nähdäksesi säähavainnot ja -ennusteet.

Kartan vaihtaminen: klikkaa mustalla rastilla varustettuja vihreitä pisteitä, niin voit zoomata sisään; viivalla varustettua vihreää pistettä, niin voit zoomata ulos tai vihreitä nuolia, niin pääset viereisille kartoille.


METAR-TAF: